Time;durP1;ratioP1;P1;durP2;ratioP2;P2;SDS_P1;SDS_P2;PMS_P1;PMS_P2;Temp;Humidity;BMP_temperature;BMP_pressure;BME280_temperature;BME280_humidity;BME280_pressure;Samples;Min_cycle;Max_cycle;Signal;HPM_P1;HPM_P2
2022/01/28 00:02:12;;;;;;;71.05;31.00;;;;;;;5.22;74.19;102183.44;5017359;28;20073;-61
2022/01/28 00:04:39;;;;;;;75.03;29.75;;;;;;;5.23;73.71;102182.56;5017163;28;20045;-61
2022/01/28 00:07:06;;;;;;;75.50;31.25;;;;;;;5.25;74.35;102177.34;5017104;28;20491;-62
2022/01/28 00:09:32;;;;;;;75.15;30.70;;;;;;;5.31;74.03;102174.66;5017285;28;20053;-61
2022/01/28 00:11:59;;;;;;;79.07;32.28;;;;;;;5.21;74.42;102184.31;5017097;28;20045;-61
2022/01/28 00:14:41;;;;;;;74.65;31.05;;;;;;;5.27;74.01;102170.38;5017277;28;20399;-61
2022/01/28 00:36:48;;;;;;;73.60;31.08;;;;;;;5.09;74.41;102167.97;5016782;28;20054;-61
2022/01/28 00:39:14;;;;;;;65.90;29.08;;;;;;;4.98;74.54;102170.69;5016501;28;20046;-61
2022/01/28 00:41:41;;;;;;;71.90;30.90;;;;;;;4.94;74.69;102166.38;5016901;28;20105;-61
2022/01/28 00:44:08;;;;;;;70.45;29.70;;;;;;;4.97;74.78;102156.81;5016689;28;20050;-61
2022/01/28 00:46:34;;;;;;;64.82;29.25;;;;;;;5.11;74.61;102176.63;5016635;28;20050;-61
2022/01/28 00:49:01;;;;;;;67.22;30.55;;;;;;;4.98;75.08;102174.16;5016606;28;20108;-61
2022/01/28 00:51:30;;;;;;;66.75;29.20;;;;;;;4.98;74.78;102170.69;5016483;28;20100;-61
2022/01/28 00:53:56;;;;;;;63.80;30.05;;;;;;;4.93;74.99;102162.94;5016494;28;20415;-61
2022/01/28 00:56:23;;;;;;;66.28;29.33;;;;;;;4.89;74.95;102154.28;5016465;28;20108;-61
2022/01/28 00:58:49;;;;;;;65.43;29.20;;;;;;;4.88;75.23;102157.75;5016087;28;20467;-62
2022/01/28 01:01:16;;;;;;;62.92;28.23;;;;;;;4.97;74.53;102174.16;5016471;28;20157;-61
2022/01/28 01:03:43;;;;;;;64.00;29.52;;;;;;;4.97;74.62;102163.78;5015570;28;20140;-61
2022/01/28 01:06:10;;;;;;;66.40;29.58;;;;;;;4.96;74.71;102156.84;5015912;28;20053;-61
2022/01/28 01:08:37;;;;;;;64.15;27.52;;;;;;;4.86;75.26;102132.66;5016246;28;20050;-61
2022/01/28 01:11:05;;;;;;;67.00;28.40;;;;;;;4.85;75.15;102144.81;5016126;28;20050;-61
2022/01/28 01:13:38;;;;;;;64.90;27.92;;;;;;;4.80;75.16;102140.50;5016205;28;20056;-61
2022/01/28 01:16:06;;;;;;;64.70;28.48;;;;;;;4.78;75.30;102148.34;5015800;28;20486;-61
2022/01/28 01:18:44;;;;;;;60.30;27.60;;;;;;;4.76;74.97;102155.28;5016132;28;20046;-61
2022/01/28 01:21:18;;;;;;;66.57;27.70;;;;;;;4.70;75.45;102153.59;5016027;28;20049;-61
2022/01/28 01:23:56;;;;;;;61.58;28.20;;;;;;;4.71;75.42;102150.13;5015976;28;20041;-61
2022/01/28 01:26:42;;;;;;;62.40;28.45;;;;;;;4.70;75.46;102144.97;5015544;28;20050;-61
2022/01/28 01:29:12;;;;;;;64.93;28.42;;;;;;;4.67;75.34;102140.66;5015682;28;20061;-61
2022/01/28 01:31:41;;;;;;;59.25;27.77;;;;;;;4.67;75.50;102139.78;5015770;28;20049;-61
2022/01/28 01:36:39;;;;;;;62.35;26.95;;;;;;;4.64;75.51;102145.84;5015784;28;20050;-61
2022/01/28 01:39:09;;;;;;;56.22;26.55;;;;;;;4.68;75.37;102150.16;5015399;28;20483;-61
2022/01/28 01:41:53;;;;;;;60.25;26.88;;;;;;;4.75;75.39;102153.56;5015291;28;20050;-61
2022/01/28 01:52:46;;;;;;;53.38;25.33;;;;;;;4.69;75.36;102149.28;5015114;28;20509;-61
2022/01/28 01:55:13;;;;;;;52.83;25.45;;;;;;;4.71;75.29;102149.25;5015629;28;20042;-61
2022/01/28 01:57:40;;;;;;;55.67;24.92;;;;;;;4.70;75.63;102155.34;5015234;28;20111;-61
2022/01/28 02:00:08;;;;;;;56.83;25.80;;;;;;;4.70;75.29;102143.22;5015251;28;20053;-61
2022/01/28 02:02:35;;;;;;;59.20;27.25;;;;;;;4.66;76.08;102140.63;5015715;28;20050;-61
2022/01/28 02:05:04;;;;;;;66.47;25.90;;;;;;;4.67;75.64;102138.06;5014921;28;20049;-61
2022/01/28 02:07:31;;;;;;;56.40;25.85;;;;;;;4.65;75.69;102133.75;5015362;28;20438;-61
2022/01/28 02:13:50;;;;;;;54.53;24.75;;;;;;;4.58;75.95;102109.50;5015028;28;20057;-61
2022/01/28 02:16:18;;;;;;;51.97;26.33;;;;;;;4.47;75.94;102101.84;5014785;28;20054;-61
2022/01/28 02:18:45;;;;;;;50.33;25.75;;;;;;;4.51;76.11;102100.91;5014953;28;20042;-61
2022/01/28 02:21:16;;;;;;;52.97;24.15;;;;;;;4.50;75.91;102091.41;5014568;28;20050;-61
2022/01/28 02:23:47;;;;;;;49.95;25.65;;;;;;;4.49;76.11;102099.22;5014895;28;20050;-61
2022/01/28 02:26:16;;;;;;;49.58;25.27;;;;;;;4.51;75.72;102098.31;5014770;28;20449;-61
2022/01/28 02:28:47;;;;;;;51.20;24.85;;;;;;;4.47;76.01;102095.75;5014448;28;20057;-61
2022/01/28 02:31:21;;;;;;;52.33;23.90;;;;;;;4.45;76.33;102098.38;5014344;28;20088;-61
2022/01/28 02:33:49;;;;;;;50.78;24.17;;;;;;;4.43;75.97;102086.28;5014644;28;20079;-62
2022/01/28 02:36:16;;;;;;;50.60;23.30;;;;;;;4.39;76.18;102090.63;5014393;28;20041;-61
2022/01/28 02:38:43;;;;;;;49.25;24.45;;;;;;;4.38;76.55;102087.19;5014193;28;20053;-62
2022/01/28 02:41:09;;;;;;;47.13;24.00;;;;;;;4.35;76.29;102078.53;5014310;28;20042;-61
2022/01/28 02:46:11;;;;;;;49.35;23.35;;;;;;;4.37;76.44;102082.84;5014412;28;20054;-61
2022/01/28 02:48:41;;;;;;;48.88;23.42;;;;;;;4.38;76.59;102074.19;5029528;28;20046;-61
2022/01/28 02:51:14;;;;;;;52.22;23.58;;;;;;;4.42;76.03;102062.03;5014323;28;20050;-61
2022/01/28 02:53:47;;;;;;;46.20;21.77;;;;;;;4.36;76.38;102049.09;5014086;28;20045;-61
2022/01/28 02:56:18;;;;;;;46.70;21.85;;;;;;;4.31;76.41;102045.69;5014348;28;20053;-61
2022/01/28 02:58:46;;;;;;;51.55;22.05;;;;;;;4.32;76.54;102037.84;5014314;28;20104;-61
2022/01/28 03:01:15;;;;;;;53.95;24.95;;;;;;;4.41;76.30;102027.38;5014504;28;20046;-61
2022/01/28 03:03:43;;;;;;;47.28;22.45;;;;;;;4.37;76.65;102017.88;5014543;28;20050;-61
2022/01/28 03:06:12;;;;;;;52.75;22.55;;;;;;;4.32;76.35;102000.63;5014182;28;20430;-61
2022/01/28 03:08:43;;;;;;;51.67;23.23;;;;;;;4.34;76.52;101989.34;5013888;28;20415;-61
2022/01/28 03:16:23;;;;;;;49.83;24.05;;;;;;;4.31;76.71;101983.31;5014292;28;20053;-62
2022/01/28 03:23:57;;;;;;;50.05;23.05;;;;;;;4.36;76.58;101981.53;5013934;28;20046;-61
2022/01/28 03:26:26;;;;;;;52.00;23.02;;;;;;;4.35;76.27;101969.41;5013455;28;20494;-61
2022/01/28 03:28:56;;;;;;;49.35;22.02;;;;;;;4.38;76.60;101982.34;5013244;28;20084;-61
2022/01/28 03:31:23;;;;;;;52.95;24.20;;;;;;;4.39;76.25;101974.56;5013712;28;20054;-61
2022/01/28 03:33:50;;;;;;;52.38;24.13;;;;;;;4.43;76.26;101957.16;5013845;28;20050;-61
2022/01/28 03:36:17;;;;;;;51.28;22.85;;;;;;;4.41;76.44;101943.34;5013537;28;20512;-61
2022/01/28 03:38:47;;;;;;;45.83;23.02;;;;;;;4.44;76.36;101955.44;5013408;28;20509;-61
2022/01/28 03:41:17;;;;;;;47.80;22.05;;;;;;;4.37;76.32;101957.25;5013730;28;20046;-61
2022/01/28 03:43:45;;;;;;;48.78;21.38;;;;;;;4.37;76.11;101949.47;5013663;28;20046;-61
2022/01/28 03:46:13;;;;;;;47.90;22.05;;;;;;;4.33;76.55;101953.84;5013676;28;20195;-61
2022/01/28 03:48:41;;;;;;;46.08;21.13;;;;;;;4.35;76.74;101962.47;5013748;28;20053;-61
2022/01/28 03:51:08;;;;;;;43.10;20.90;;;;;;;4.34;76.49;101965.06;5013235;28;20503;-61
2022/01/28 03:53:35;;;;;;;48.05;23.08;;;;;;;4.34;76.47;101972.88;5013941;28;20076;-61
2022/01/28 03:56:02;;;;;;;53.40;22.80;;;;;;;4.28;76.41;101962.53;5013621;28;20050;-61
2022/01/28 03:58:28;;;;;;;45.50;21.30;;;;;;;4.27;76.97;101956.50;5013314;28;20049;-61
2022/01/28 04:00:56;;;;;;;48.63;22.48;;;;;;;4.32;76.47;101974.66;5014067;28;20057;-61
2022/01/28 04:13:56;;;;;;;44.17;20.08;;;;;;;4.28;76.68;101960.81;5013039;28;20045;-61
2022/01/28 04:18:49;;;;;;;42.03;20.48;;;;;;;4.39;76.13;101977.16;5012745;28;20046;-61
2022/01/28 04:21:16;;;;;;;40.20;19.17;;;;;;;4.30;76.41;101966.84;5012703;28;20054;-61
2022/01/28 04:23:42;;;;;;;40.25;19.25;;;;;;;4.30;75.95;101969.44;5012711;28;20042;-61
2022/01/28 04:26:15;;;;;;;40.30;19.55;;;;;;;4.22;76.34;101990.31;5012908;28;20076;-61
2022/01/28 04:28:42;;;;;;;38.28;18.35;;;;;;;4.18;76.33;101998.16;5012629;28;20424;-61
2022/01/28 04:31:08;;;;;;;46.67;21.80;;;;;;;4.18;76.40;101995.56;5012868;28;20054;-61
2022/01/28 04:33:36;;;;;;;39.30;19.27;;;;;;;4.20;76.69;102001.59;5012838;28;20053;-61
2022/01/28 04:36:04;;;;;;;41.10;19.45;;;;;;;4.23;76.23;101984.25;5012488;28;20045;-61
2022/01/28 04:43:32;;;;;;;41.05;19.15;;;;;;;4.23;76.25;101996.38;5016142;28;20108;-61
2022/01/28 04:46:16;;;;;;;39.53;18.88;;;;;;;4.23;76.09;101998.97;5016189;28;20149;-59
2022/01/28 04:54:13;;;;;;;37.80;19.23;;;;;;;4.24;76.05;102017.16;5015891;28;20056;-59
2022/01/28 04:57:00;;;;;;;41.90;18.92;;;;;;;4.26;76.34;102032.72;5015809;28;20104;-59
2022/01/28 05:07:51;;;;;;;40.97;19.00;;;;;;;4.29;75.74;102016.22;5015908;28;20049;-59
2022/01/28 05:25:44;;;;;;;34.05;16.45;;;;;;;4.28;75.71;102046.56;5016437;28;20041;-59
2022/01/28 05:28:02;;;;;;;32.40;17.20;;;;;;;4.23;75.88;102059.59;5015070;28;20054;-59
2022/01/28 05:30:29;;;;;;;33.60;17.05;;;;;;;4.23;75.80;102053.53;5015475;28;20391;-59
2022/01/28 05:32:55;;;;;;;34.28;17.42;;;;;;;4.27;75.85;102057.84;5015398;28;20054;-59
2022/01/28 05:35:22;;;;;;;30.23;16.10;;;;;;;4.22;75.76;102065.66;5015483;28;20549;-59
2022/01/28 05:37:49;;;;;;;34.42;17.63;;;;;;;4.26;75.86;102045.72;5014951;28;20399;-59
2022/01/28 05:40:16;;;;;;;33.00;17.63;;;;;;;4.28;75.52;102058.69;5015138;28;20042;-59
2022/01/28 05:42:42;;;;;;;31.38;16.08;;;;;;;4.29;75.49;102071.69;5015283;28;20080;-59
2022/01/28 05:45:09;;;;;;;32.40;16.60;;;;;;;4.34;75.41;102075.09;5015126;28;20165;-59
2022/01/28 05:47:36;;;;;;;33.90;16.02;;;;;;;4.28;75.57;102067.34;5015582;28;20053;-59
2022/01/28 05:50:05;;;;;;;33.92;16.52;;;;;;;4.21;75.42;102076.91;5014788;28;20153;-59
2022/01/28 05:52:33;;;;;;;37.25;17.23;;;;;;;4.21;75.64;102089.91;5015002;28;20076;-59
2022/01/28 05:55:00;;;;;;;35.40;16.63;;;;;;;4.24;75.25;102063.03;5015026;28;20410;-59
2022/01/28 05:57:27;;;;;;;31.40;15.18;;;;;;;4.18;75.48;102071.75;5014526;28;20544;-59
2022/01/28 05:59:53;;;;;;;31.88;16.50;;;;;;;4.25;75.49;102069.97;5014908;28;20045;-59
2022/01/28 06:02:20;;;;;;;31.80;16.00;;;;;;;4.28;75.35;102075.16;5015403;28;20050;-59
2022/01/28 06:04:47;;;;;;;31.35;15.20;;;;;;;4.32;75.17;102100.22;5014843;28;20074;-59
2022/01/28 06:07:14;;;;;;;32.72;16.13;;;;;;;4.36;75.03;102088.91;5014717;28;20092;-63
2022/01/28 06:09:40;;;;;;;32.55;17.13;;;;;;;4.39;75.00;102086.31;5014774;28;20057;-63
2022/01/28 06:12:08;;;;;;;31.92;16.98;;;;;;;4.44;74.86;102072.41;5015085;28;20049;-64
2022/01/28 06:14:34;;;;;;;33.13;17.08;;;;;;;4.41;75.08;102076.75;5014557;28;20498;-64
2022/01/28 06:17:01;;;;;;;33.15;16.85;;;;;;;4.48;75.00;102084.50;5014576;28;20054;-63
2022/01/28 06:19:28;;;;;;;38.95;17.35;;;;;;;4.46;74.99;102079.31;5014343;28;20092;-63
2022/01/28 06:21:54;;;;;;;35.58;17.38;;;;;;;4.49;74.95;102084.47;5014499;28;20414;-63
2022/01/28 06:24:21;;;;;;;35.53;17.23;;;;;;;4.51;74.81;102081.88;5014468;28;20061;-63
2022/01/28 06:26:48;;;;;;;32.50;17.13;;;;;;;4.55;74.80;102078.38;5014003;28;20057;-64
2022/01/28 06:29:15;;;;;;;35.38;17.25;;;;;;;4.59;74.74;102082.66;5014085;28;20061;-62
2022/01/28 06:31:47;;;;;;;34.60;17.02;;;;;;;4.58;74.76;102075.72;5014209;28;20053;-63
2022/01/28 06:34:16;;;;;;;35.70;16.33;;;;;;;4.58;74.53;102093.91;5013893;28;20383;-63
2022/01/28 06:36:43;;;;;;;33.97;16.23;;;;;;;4.57;74.72;102089.59;5013971;28;20056;-65
2022/01/28 06:39:09;;;;;;;33.92;17.02;;;;;;;4.59;74.91;102095.66;5014218;28;20050;-63
2022/01/28 06:41:46;;;;;;;36.90;18.10;;;;;;;4.62;74.57;102128.56;5014266;28;20050;-63
2022/01/28 06:44:15;;;;;;;38.88;17.88;;;;;;;4.61;74.61;102124.22;5013585;28;20107;-64
2022/01/28 06:46:42;;;;;;;31.45;16.88;;;;;;;4.66;74.58;102140.63;5014468;28;20065;-64
2022/01/28 06:49:09;;;;;;;36.35;18.27;;;;;;;4.62;74.50;102154.56;5014051;28;20149;-63
2022/01/28 06:51:37;;;;;;;36.95;17.75;;;;;;;4.66;74.31;102151.91;5013768;28;20045;-64
2022/01/28 06:54:04;;;;;;;36.10;17.65;;;;;;;4.63;74.28;102138.09;5013755;28;20049;-64
2022/01/28 06:56:31;;;;;;;38.20;19.60;;;;;;;4.63;74.75;102144.13;5013750;28;20049;-64
2022/01/28 06:58:57;;;;;;;36.95;19.15;;;;;;;4.66;74.44;102148.44;5013555;28;20042;-64
2022/01/28 07:01:24;;;;;;;37.22;17.58;;;;;;;4.66;74.49;102166.63;5013436;28;20052;-65
2022/01/28 07:03:51;;;;;;;41.05;18.05;;;;;;;4.59;74.76;102178.84;5013069;28;20494;-65
2022/01/28 07:06:19;;;;;;;41.03;19.23;;;;;;;4.56;74.89;102169.31;5013426;28;20060;-63
2022/01/28 07:08:46;;;;;;;37.22;17.77;;;;;;;4.60;74.41;102175.38;5013431;28;20057;-63
2022/01/28 07:11:13;;;;;;;40.92;18.92;;;;;;;4.62;74.79;102184.03;5013477;28;20046;-64
2022/01/28 07:13:40;;;;;;;46.63;19.63;;;;;;;4.63;74.56;102185.72;5013367;28;20074;-64
2022/01/28 07:16:06;;;;;;;50.03;22.45;;;;;;;4.67;74.78;102213.44;5013574;28;20045;-63
2022/01/28 07:18:33;;;;;;;47.38;22.60;;;;;;;4.66;74.56;102229.94;5013260;28;20077;-64
2022/01/28 07:20:59;;;;;;;43.28;20.85;;;;;;;4.62;74.66;102233.44;5013515;28;20050;-64
2022/01/28 07:23:26;;;;;;;40.92;19.25;;;;;;;4.69;74.40;102226.44;5013226;28;20590;-63
2022/01/28 07:25:53;;;;;;;56.70;24.75;;;;;;;4.71;74.50;102248.94;5013442;28;20096;-63
2022/01/28 07:28:22;;;;;;;46.75;22.20;;;;;;;4.70;74.29;102233.38;5013393;28;20081;-63
2022/01/28 07:30:49;;;;;;;51.22;23.33;;;;;;;4.73;74.44;102225.53;5013430;28;20049;-63
2022/01/28 07:33:16;;;;;;;48.35;21.67;;;;;;;4.76;74.39;102237.63;5013052;28;20490;-63
2022/01/28 07:35:43;;;;;;;46.15;21.02;;;;;;;4.78;74.12;102231.56;5013411;28;20046;-62
2022/01/28 07:38:10;;;;;;;48.03;21.55;;;;;;;4.73;74.18;102222.94;5013072;28;20046;-63
2022/01/28 07:40:36;;;;;;;45.63;20.95;;;;;;;4.77;74.20;102239.38;5013544;28;20042;-64
2022/01/28 07:43:03;;;;;;;45.70;20.08;;;;;;;4.70;74.19;102255.03;5013258;28;20046;-63
2022/01/28 07:45:30;;;;;;;52.08;23.48;;;;;;;4.70;74.42;102254.16;5013337;28;20080;-63
2022/01/28 07:47:57;;;;;;;65.40;28.15;;;;;;;4.65;74.27;102249.00;5013152;28;20137;-66
2022/01/28 07:50:23;;;;;;;57.25;25.85;;;;;;;4.72;74.37;102271.47;5013286;28;20042;-63
2022/01/28 07:52:50;;;;;;;54.03;24.80;;;;;;;4.83;74.16;102273.97;5013202;28;20050;-63
2022/01/28 07:55:17;;;;;;;58.15;26.92;;;;;;;4.90;74.09;102253.97;5012867;28;20046;-63
2022/01/28 07:57:45;;;;;;;58.90;27.48;;;;;;;4.98;73.61;102266.94;5013258;28;20052;-62
2022/01/28 08:00:13;;;;;;;55.70;25.75;;;;;;;5.15;73.29;102283.25;5013139;28;20454;-62
2022/01/28 08:02:42;;;;;;;56.92;27.05;;;;;;;5.21;72.96;102284.94;5013056;28;20073;-63
2022/01/28 08:05:11;;;;;;;63.47;27.88;;;;;;;5.28;72.87;102293.56;5013078;28;20050;-63
2022/01/28 08:07:37;;;;;;;60.40;27.95;;;;;;;5.38;72.90;102296.06;5012984;28;20054;-63
2022/01/28 08:13:56;;;;;;;65.60;29.98;;;;;;;5.73;71.86;102307.84;5014834;28;20108;-70
2022/01/28 08:16:22;;;;;;;69.20;30.60;;;;;;;5.87;71.35;102312.91;5016779;28;20046;-69
2022/01/28 08:18:49;;;;;;;70.97;32.03;;;;;;;6.01;71.14;102297.13;5016349;28;20479;-69
2022/01/28 08:21:16;;;;;;;76.47;33.60;;;;;;;6.13;71.03;102300.47;5016350;28;20564;-69
2022/01/28 08:23:43;;;;;;;78.57;32.80;;;;;;;6.33;70.33;102310.63;5016339;28;20050;-69
2022/01/28 08:26:11;;;;;;;77.80;33.90;;;;;;;6.44;69.94;102327.00;5016123;28;20419;-70
2022/01/28 08:28:41;;;;;;;77.60;35.58;;;;;;;6.65;69.41;102323.22;5016329;28;20057;-68
2022/01/28 08:31:09;;;;;;;79.05;35.15;;;;;;;6.81;69.16;102329.06;5016482;28;20056;-69
2022/01/28 08:33:36;;;;;;;86.70;36.90;;;;;;;6.96;68.45;102333.19;5016383;28;20461;-69
2022/01/28 08:36:03;;;;;;;81.85;36.08;;;;;;;7.15;67.65;102336.38;5016400;28;20046;-69
2022/01/28 08:38:35;;;;;;;91.43;39.30;;;;;;;7.26;67.23;102344.03;5016353;28;20077;-69
2022/01/28 08:41:02;;;;;;;89.25;37.60;;;;;;;7.51;66.81;102351.44;5016036;28;20457;-69
2022/01/28 08:43:29;;;;;;;88.13;39.35;;;;;;;7.60;66.35;102351.25;5016263;28;20053;-68
2022/01/28 08:45:56;;;;;;;87.07;38.97;;;;;;;7.76;65.80;102348.38;5016106;28;20046;-69
2022/01/28 08:48:23;;;;;;;87.05;39.15;;;;;;;7.92;65.30;102348.94;5015882;28;20540;-71
2022/01/28 08:50:50;;;;;;;83.10;40.25;;;;;;;8.06;65.06;102367.81;5015874;28;20042;-69
2022/01/28 08:53:17;;;;;;;91.88;39.83;;;;;;;8.12;64.33;102359.00;5016115;28;20453;-69
2022/01/28 08:55:44;;;;;;;90.82;40.83;;;;;;;8.23;64.12;102375.31;5015812;28;20473;-69
2022/01/28 08:58:11;;;;;;;89.90;39.85;;;;;;;8.33;63.82;102387.31;5015576;28;20048;-69
2022/01/28 09:00:38;;;;;;;85.72;38.25;;;;;;;8.49;63.18;102387.91;5015980;28;20069;-68
2022/01/28 09:03:05;;;;;;;95.10;40.97;;;;;;;8.65;62.52;102393.66;5015946;28;20049;-70
2022/01/28 09:05:33;;;;;;;90.18;41.72;;;;;;;8.80;62.17;102392.44;5015661;28;20042;-69
2022/01/28 09:08:06;;;;;;;92.35;41.63;;;;;;;8.95;61.88;102399.09;5015835;28;20054;-70
2022/01/28 09:10:34;;;;;;;92.72;41.17;;;;;;;9.13;61.18;102397.81;5015717;28;20053;-70
2022/01/28 09:15:28;;;;;;;79.00;38.85;;;;;;;9.34;60.40;102408.66;5015757;28;20041;-70
2022/01/28 09:17:56;;;;;;;83.43;39.10;;;;;;;9.50;59.81;102409.16;5016123;28;20056;-70
2022/01/28 09:20:27;;;;;;;76.03;37.15;;;;;;;9.57;59.23;102396.72;5015210;28;20066;-71
2022/01/28 09:22:55;;;;;;;73.55;37.50;;;;;;;9.78;58.59;102408.44;5015813;28;20050;-70
2022/01/28 09:25:22;;;;;;;83.35;36.78;;;;;;;9.90;58.03;102417.72;5014596;28;20045;-68
2022/01/28 09:27:49;;;;;;;76.47;37.58;;;;;;;10.02;57.71;102429.63;5015131;28;20491;-69
2022/01/28 09:30:15;;;;;;;74.80;37.47;;;;;;;10.22;57.12;102432.59;5015179;28;20137;-71
2022/01/28 09:32:42;;;;;;;75.20;37.75;;;;;;;10.19;56.66;102427.41;5015009;28;20046;-69
2022/01/28 09:35:09;;;;;;;73.72;38.95;;;;;;;10.36;56.18;102429.63;5015069;28;20502;-69
2022/01/28 09:37:36;;;;;;;68.70;36.83;;;;;;;10.50;55.57;102433.59;5014964;28;20487;-71
2022/01/28 09:40:04;;;;;;;68.82;36.33;;;;;;;10.49;55.17;102431.84;5014749;28;20133;-69
2022/01/28 09:42:34;;;;;;;63.90;34.05;;;;;;;10.66;54.79;102418.25;5015237;28;20391;-70
2022/01/28 09:45:03;;;;;;;66.75;35.47;;;;;;;10.93;53.78;102433.16;5015118;28;20046;-72
2022/01/28 09:47:31;;;;;;;68.78;34.63;;;;;;;11.11;53.25;102454.53;5014775;28;20045;-69
2022/01/28 09:49:58;;;;;;;63.42;32.83;;;;;;;11.19;52.92;102447.25;5014701;28;20048;-70
2022/01/28 09:52:25;;;;;;;61.95;33.58;;;;;;;11.21;52.52;102449.81;5014584;28;20045;-71
2022/01/28 09:54:51;;;;;;;61.88;33.05;;;;;;;11.40;51.70;102450.97;5014538;28;20532;-73
2022/01/28 09:57:19;;;;;;;65.68;34.17;;;;;;;11.44;51.38;102442.06;5014818;28;20045;-70
2022/01/28 09:59:47;;;;;;;63.42;34.25;;;;;;;11.52;50.98;102449.69;5015082;28;20541;-71
2022/01/28 10:02:14;;;;;;;64.22;34.67;;;;;;;11.40;50.91;102458.84;5014963;28;20134;-70
2022/01/28 10:04:41;;;;;;;67.90;34.95;;;;;;;11.55;50.32;102459.25;5014735;28;20054;-71
2022/01/28 10:07:15;;;;;;;67.60;35.80;;;;;;;11.62;50.26;102473.03;5014417;28;20052;-69
2022/01/28 10:10:03;;;;;;;66.90;34.65;;;;;;;11.67;49.88;102464.09;5014880;28;20077;-70
2022/01/28 10:12:39;;;;;;;66.45;34.55;;;;;;;11.54;50.01;102470.66;5013912;28;20453;-70
2022/01/28 10:15:19;;;;;;;66.50;35.72;;;;;;;11.79;49.30;102483.84;5014649;28;20057;-70
2022/01/28 10:17:54;;;;;;;69.38;36.40;;;;;;;11.95;48.71;102484.22;5014544;28;20041;-71
2022/01/28 10:20:22;;;;;;;69.18;35.85;;;;;;;12.02;48.77;102483.09;5014527;28;20079;-70
2022/01/28 10:22:57;;;;;;;69.30;36.83;;;;;;;12.14;48.25;102478.31;5014547;28;20462;-70
2022/01/28 10:25:24;;;;;;;65.57;34.70;;;;;;;12.01;48.25;102485.78;5014108;28;20491;-72
2022/01/28 10:28:05;;;;;;;69.80;37.10;;;;;;;11.84;48.71;102481.09;5014118;28;20050;-70
2022/01/28 10:30:38;;;;;;;72.60;37.17;;;;;;;11.84;48.41;102481.09;5013282;28;20069;-71
2022/01/28 10:33:17;;;;;;;71.88;38.00;;;;;;;11.45;49.03;102484.97;5014032;28;20549;-70
2022/01/28 10:35:52;;;;;;;73.50;38.05;;;;;;;11.28;49.30;102486.38;5014024;28;20057;-71
2022/01/28 10:38:36;;;;;;;78.80;40.40;;;;;;;11.31;49.49;102456.50;5014238;28;20046;-72
2022/01/28 10:41:12;;;;;;;79.07;38.95;;;;;;;11.42;49.18;102469.31;5014239;28;20057;-71
2022/01/28 10:43:48;;;;;;;73.22;38.63;;;;;;;10.73;51.13;102462.66;5014140;28;20056;-71
2022/01/28 10:46:21;;;;;;;78.50;40.40;;;;;;;11.08;50.64;102467.75;5013766;28;20046;-70
2022/01/28 10:49:01;;;;;;;75.45;38.95;;;;;;;11.11;50.62;102468.50;5014179;28;20049;-70
2022/01/28 10:51:41;;;;;;;72.05;38.25;;;;;;;10.69;51.64;102479.41;5013970;28;20085;-71
2022/01/28 10:54:20;;;;;;;79.47;39.65;;;;;;;10.69;51.69;102482.03;5013758;28;20050;-71
2022/01/28 10:56:55;;;;;;;79.72;40.20;;;;;;;11.53;49.79;102485.59;5013962;28;20092;-71
2022/01/28 10:59:25;;;;;;;81.70;38.28;;;;;;;11.88;49.04;102490.59;5013892;28;20501;-70
2022/01/28 11:01:53;;;;;;;77.38;39.55;;;;;;;12.01;48.99;102484.03;5013521;28;20467;-71
2022/01/28 11:04:22;;;;;;;79.32;39.30;;;;;;;12.19;48.66;102477.25;5013810;28;20049;-73
2022/01/28 11:06:53;;;;;;;77.25;38.05;;;;;;;12.21;48.24;102480.72;5013716;28;20049;-73
2022/01/28 11:09:21;;;;;;;76.00;37.65;;;;;;;12.17;48.72;102494.88;5013569;28;20137;-72
2022/01/28 11:15:31;;;;;;;91.88;48.17;;;;;;;12.40;47.95;102508.97;5013644;28;20053;-72
2022/01/28 11:18:01;;;;;;;71.45;36.50;;;;;;;12.18;48.81;102504.47;5013425;28;20486;-71
2022/01/28 11:20:54;;;;;;;78.90;39.33;;;;;;;12.32;48.38;102497.88;5013233;28;20052;-72
2022/01/28 11:23:49;;;;;;;72.82;37.25;;;;;;;12.34;48.42;102481.13;5013537;28;20052;-72
2022/01/28 11:26:46;;;;;;;76.22;37.70;;;;;;;12.39;48.37;102465.13;5013470;28;20046;-71
2022/01/28 11:29:21;;;;;;;80.30;38.67;;;;;;;12.36;48.39;102470.53;5013204;28;20054;-72
2022/01/28 11:31:47;;;;;;;85.95;44.05;;;;;;;12.32;48.31;102464.50;5013407;28;20045;-72
2022/01/28 11:34:31;;;;;;;91.93;48.75;;;;;;;12.09;48.94;102471.44;5013321;28;20054;-72
2022/01/28 11:37:19;;;;;;;91.85;48.13;;;;;;;12.19;49.07;102477.25;5013279;28;20124;-70
2022/01/28 11:39:50;;;;;;;76.22;39.45;;;;;;;12.25;49.03;102478.78;5013003;28;20054;-69
2022/01/28 11:42:23;;;;;;;82.40;42.83;;;;;;;12.26;49.16;102480.53;5013308;28;20146;-71
2022/01/28 11:44:55;;;;;;;87.55;45.05;;;;;;;12.19;49.04;102472.00;5013220;28;20056;-68
2022/01/28 11:47:27;;;;;;;84.88;44.80;;;;;;;12.18;49.35;102466.78;5013284;28;20049;-73
2022/01/28 11:49:56;;;;;;;98.47;50.88;;;;;;;12.22;49.05;102466.59;5016493;28;20482;-72
2022/01/28 11:52:33;;;;;;;93.80;49.75;;;;;;;12.34;49.06;102448.66;5017216;28;20077;-67
2022/01/28 11:55:15;;;;;;;76.80;39.72;;;;;;;12.54;49.07;102450.56;5017297;28;20103;-68
2022/01/28 11:57:51;;;;;;;78.97;41.33;;;;;;;12.19;49.63;102445.69;5016901;28;20046;-69
2022/01/28 12:00:23;;;;;;;97.72;49.90;;;;;;;12.37;49.47;102448.56;5017191;28;20042;-71
2022/01/28 12:02:52;;;;;;;77.00;39.92;;;;;;;12.24;49.39;102442.88;5017127;28;20069;-72
2022/01/28 12:05:26;;;;;;;83.70;40.63;;;;;;;12.36;49.23;102452.09;5017829;28;20499;-71
2022/01/28 12:07:54;;;;;;;84.07;42.78;;;;;;;12.28;49.14;102440.97;5017032;28;20050;-68
2022/01/28 12:10:23;;;;;;;87.53;43.60;;;;;;;11.88;50.09;102440.59;5016688;28;20410;-69
2022/01/28 12:13:05;;;;;;;87.30;43.17;;;;;;;12.09;49.67;102424.09;5016804;28;20054;-67
2022/01/28 12:16:03;;;;;;;98.65;48.50;;;;;;;12.47;49.51;102417.47;5016582;28;20050;-71
2022/01/28 12:18:45;;;;;;;84.68;41.88;;;;;;;12.38;49.63;102416.06;5031682;28;20513;-69
2022/01/28 12:21:17;;;;;;;85.65;44.35;;;;;;;12.52;48.91;102419.00;5016838;28;20114;-68
2022/01/28 12:23:44;;;;;;;94.40;44.03;;;;;;;12.40;49.25;102407.19;5016484;28;20490;-69
2022/01/28 12:26:16;;;;;;;85.65;42.28;;;;;;;12.63;48.87;102405.41;5016613;28;20045;-67
2022/01/28 12:28:49;;;;;;;101.70;47.78;;;;;;;12.47;48.99;102420.09;5016137;28;20116;-67
2022/01/28 12:31:23;;;;;;;98.75;45.88;;;;;;;12.39;49.14;102418.63;5016786;28;20053;-60
2022/01/28 12:33:53;;;;;;;92.65;46.65;;;;;;;12.32;49.05;102413.66;5016144;28;20136;-60
2022/01/28 12:36:35;;;;;;;85.43;43.38;;;;;;;12.39;48.83;102426.53;5015995;28;20561;-60
2022/01/28 12:41:52;;;;;;;96.78;49.20;;;;;;;12.68;48.41;102410.53;5016305;28;20125;-60
2022/01/28 12:44:19;;;;;;;100.55;47.75;;;;;;;12.45;48.62;102398.25;5016190;28;20100;-67
2022/01/28 12:46:54;;;;;;;99.38;47.58;;;;;;;12.51;48.47;102417.28;5016537;28;20041;-68
2022/01/28 12:49:29;;;;;;;106.55;56.75;;;;;;;12.52;48.49;102408.47;5015981;28;20060;-67
2022/01/28 12:52:00;;;;;;;95.53;46.85;;;;;;;12.63;48.24;102380.88;5016189;28;20052;-68
2022/01/28 12:54:46;;;;;;;137.43;67.53;;;;;;;12.95;47.25;102384.00;5016103;28;20156;-70
2022/01/28 12:57:16;;;;;;;119.72;56.90;;;;;;;13.11;47.02;102405.34;5016102;28;20053;-69
2022/01/28 12:59:47;;;;;;;81.85;42.15;;;;;;;12.94;46.96;102403.38;5014956;28;20054;-68
2022/01/28 13:02:15;;;;;;;73.88;39.13;;;;;;;12.80;47.82;102381.06;5015650;28;20100;-71
2022/01/28 13:09:54;;;;;;;94.50;49.13;;;;;;;12.85;47.69;102354.53;5015632;28;20487;-71
2022/01/28 13:12:29;;;;;;;83.15;42.47;;;;;;;12.92;47.44;102352.53;5015875;28;20056;-70
2022/01/28 13:15:13;;;;;;;85.43;44.90;;;;;;;13.02;47.26;102359.13;5015715;28;20100;-70
2022/01/28 13:17:51;;;;;;;78.93;42.70;;;;;;;13.04;46.92;102360.78;5015453;28;20050;-70
2022/01/28 13:20:18;;;;;;;126.53;61.42;;;;;;;13.07;47.13;102344.81;5015608;28;20053;-70